KBKLKCAK

Guest
Details From KBKL - Burke Lakefront
To KCAK - Akron Canton Rgnl
Flight Number -
Tags Generated
Created
Modified
Stats Distance 38 nm / 70 km
Max Altitude 0 ft / 0 m
Waypoints 2
Social Downloads 1
Likes 0
Share VATSIM

Download

Looking for another format? Having issues loading an existing format? Contact us
Advertisement - Login to hide

Notes

Generated

Route

KBKL KCAK

ID Type Via Altitude Latitude Longitude Leg Dist Tot Dist Heading (true) Name
O KBKL APT - 0 ft / 0 m 41.51269˚ -81.69169˚ - 0 nm - -
O KCAK APT - 0 ft / 0 m 40.90750˚ -81.45374˚ 37 nm 37 nm 163° / 164° -

Altitude Profile

Advertisement - Login to hide

KBKL

Details ICAO KBKL (BKL)
Name Burke Lakefront
Region United States
Timezone America/New_York (UTC-5.0)
Stats Elevation 583 ft / 178 m (AMSL)
Location 41.517422° -81.683358°
Runways 2
Magnetic Variation 8.367° W

METAR

KBKL 151353Z 16010KT 10SM OVC050 M08/M13 A2995 RMK AO2 SLP153 T10831133

Decode

TAF

Not found

Departure Runways

ID Width Length Bearing (true) Bearing (mag) Surface Threshold Offset Overrun Length
06L 150 ft / 46 m 6,190 ft / 1,887 m 57.81° 66.18° Asphalt 265 ft / 81 m 0 ft / 0 m
06R 100 ft / 30 m 5,190 ft / 1,582 m 57.82° 66.19° Asphalt 267 ft / 81 m 0 ft / 0 m
24L 100 ft / 30 m 5,190 ft / 1,582 m 237.83° 246.20° Asphalt 0 ft / 0 m 0 ft / 0 m
24R 150 ft / 46 m 6,190 ft / 1,887 m 237.82° 246.19° Asphalt 0 ft / 0 m 0 ft / 0 m

KCAK

Details ICAO KCAK (CAK)
Name AKRON CANTON RGNL
Region United States
Timezone America/New_York (UTC-5.0)
Stats Elevation 1,228 ft / 374 m (AMSL)
Location 40.916069° -81.442189°
Runways 2
Magnetic Variation 8.410° W

METAR

KCAK 151351Z 20006KT 7SM SCT150 BKN200 M11/M14 A2995 RMK AO2 SLP164 T11061139 $

Decode

TAF

TAF KCAK 151120Z 1512/1612 20005KT P6SM OVC040 FM152000 24012G20KT P6SM OVC015 FM160100 25012KT P6SM VCSH SCT015 OVC035

Decode

Destination Runways

ID Width Length Bearing (true) Bearing (mag) Surface Threshold Offset Overrun Length
01 151 ft / 46 m 7,612 ft / 2,320 m 2.46° 10.87° Asphalt 0 ft / 0 m 0 ft / 0 m
05 151 ft / 46 m 7,592 ft / 2,314 m 47.35° 55.76° Asphalt 0 ft / 0 m 0 ft / 0 m
19 151 ft / 46 m 7,612 ft / 2,320 m 182.46° 190.87° Asphalt 600 ft / 183 m 0 ft / 0 m
23 151 ft / 46 m 7,592 ft / 2,314 m 227.36° 235.77° Asphalt 0 ft / 0 m 0 ft / 0 m

Approach Navaids

Runway Type Ident Frequency Range Bearing (true) Bearing (mag) Slope Elevation
01 Localiser ICAK 109.50 MHz 18 nm / 33 km 2.46° 10.87° - 1,204 ft / 367 m (AMSL)
01 Glidescope ICAK 109.50 MHz 10 nm / 19 km 2.46° 10.87° 3.00° 1,199 ft / 365 m (AMSL)
19 Localiser IRGO 109.50 MHz 18 nm / 33 km 182.46° 190.87° - 1,215 ft / 370 m (AMSL)
19 Glidescope IRGO 109.50 MHz 10 nm / 19 km 182.46° 190.87° 3.00° 1,210 ft / 369 m (AMSL)
23 Localiser IGGZ 108.30 MHz 18 nm / 33 km 227.36° 235.77° - 1,183 ft / 361 m (AMSL)
23 Glidescope IGGZ 108.30 MHz 10 nm / 19 km 227.36° 235.77° 3.00° 1,223 ft / 373 m (AMSL)

Popular Alternatives